Time;durP1;ratioP1;P1;durP2;ratioP2;P2;SDS_P1;SDS_P2;PMS_P1;PMS_P2;Temp;Humidity;BMP_temperature;BMP_pressure;BME280_temperature;BME280_humidity;BME280_pressure;Samples;Min_cycle;Max_cycle;Signal;HPM_P1;HPM_P2
2022/10/29 00:01:41;;;;;;;1.33;0.80;;;12.30;99.90;;;;;;4893628;29;20120;-75
2022/10/29 00:04:06;;;;;;;2.58;0.90;;;12.40;99.90;;;;;;4861841;29;20052;-75
2022/10/29 00:06:32;;;;;;;1.08;0.70;;;11.90;99.90;;;;;;4893118;29;20485;-75
2022/10/29 00:08:57;;;;;;;1.83;0.60;;;11.90;99.90;;;;;;4876969;29;20063;-75
2022/10/29 00:11:23;;;;;;;1.58;0.60;;;12.30;99.90;;;;;;4892382;29;20445;-75
2022/10/29 00:13:54;;;;;;;2.10;0.70;;;11.90;99.90;;;;;;4893427;29;20084;-75
2022/10/29 00:16:22;;;;;;;1.48;0.80;;;11.90;99.90;;;;;;4892138;29;20386;-75
2022/10/29 00:18:48;;;;;;;2.38;0.70;;;11.90;99.90;;;;;;4892267;29;20477;-75
2022/10/29 00:21:19;;;;;;;2.63;0.80;;;12.30;99.90;;;;;;4882600;29;20152;-75
2022/10/29 00:23:45;;;;;;;1.48;0.75;;;11.90;99.90;;;;;;4892350;29;20056;-75
2022/10/29 00:26:12;;;;;;;1.67;0.82;;;12.10;99.90;;;;;;4890572;29;20104;-75
2022/10/29 00:28:38;;;;;;;1.42;0.60;;;12.50;99.90;;;;;;4886177;29;20044;-75
2022/10/29 00:31:15;;;;;;;1.73;0.77;;;11.90;99.90;;;;;;4886186;29;20162;-75
2022/10/29 00:33:41;;;;;;;1.05;0.70;;;12.60;99.90;;;;;;4867221;29;20067;-75
2022/10/29 00:36:11;;;;;;;;;;;12.60;99.90;;;;;;4879316;29;20040;-75
2022/10/29 00:38:37;;;;;;;1.67;0.80;;;12.00;99.90;;;;;;4878242;29;19919;-75
2022/10/29 00:41:05;;;;;;;1.52;0.75;;;11.90;99.90;;;;;;4894620;29;20055;-75
2022/10/29 00:43:36;;;;;;;1.27;0.65;;;12.50;99.90;;;;;;4892720;29;20044;-74
2022/10/29 00:46:08;;;;;;;1.33;0.70;;;12.50;99.90;;;;;;4879006;29;20505;-75
2022/10/29 00:48:38;;;;;;;1.85;0.80;;;11.90;99.90;;;;;;4893320;29;20060;-76
2022/10/29 00:51:07;;;;;;;1.40;0.63;;;11.90;99.90;;;;;;4894793;29;20103;-76
2022/10/29 00:53:38;;;;;;;1.52;0.60;;;12.50;99.90;;;;;;4879036;29;20045;-75
2022/10/29 00:56:05;;;;;;;1.08;0.45;;;12.50;99.90;;;;;;4878943;29;20052;-76
2022/10/29 00:58:30;;;;;;;2.33;0.77;;;11.80;99.90;;;;;;4897395;29;20135;-75
2022/10/29 01:00:58;;;;;;;1.48;0.70;;;12.50;99.90;;;;;;4883126;29;20092;-75
2022/10/29 01:03:24;;;;;;;1.58;0.60;;;12.50;99.90;;;;;;4882119;29;20071;-75
2022/10/29 01:05:51;;;;;;;1.30;0.60;;;11.80;99.90;;;;;;4866904;29;20489;-75
2022/10/29 01:08:18;;;;;;;1.13;0.50;;;12.10;99.90;;;;;;4880908;29;20056;-75
2022/10/29 01:11:02;;;;;;;;;;;12.10;99.90;;;;;;4880556;29;20123;-76
2022/10/29 01:13:36;;;;;;;1.58;0.70;;;11.90;99.90;;;;;;4904993;29;20307;-75
2022/10/29 01:16:11;;;;;;;1.27;0.85;;;12.10;99.90;;;;;;4878638;29;20115;-75
2022/10/29 01:18:51;;;;;;;1.38;0.70;;;12.20;99.90;;;;;;4897969;29;20052;-75
2022/10/29 01:21:37;;;;;;;1.52;0.60;;;12.20;99.90;;;;;;4912589;29;20036;-75
2022/10/29 01:24:27;;;;;;;0.50;0.40;;;12.30;99.90;;;;;;4879170;29;20096;-75
2022/10/29 01:27:24;;;;;;;1.05;0.40;;;12.30;99.90;;;;;;4887501;29;20109;-76
2022/10/29 01:30:05;;;;;;;1.35;0.75;;;11.80;99.90;;;;;;4896947;29;20033;-76
2022/10/29 01:32:41;;;;;;;0.52;0.45;;;11.70;99.90;;;;;;4895594;29;20041;-76
2022/10/29 01:35:07;;;;;;;0.90;0.50;;;11.70;99.90;;;;;;4881433;29;20033;-76
2022/10/29 01:37:39;;;;;;;0.60;0.50;;;12.50;99.90;;;;;;4893809;29;20614;-76
2022/10/29 01:40:07;;;;;;;0.95;0.73;;;11.80;99.90;;;;;;4896660;29;20056;-76
2022/10/29 01:42:45;;;;;;;0.55;0.52;;;12.20;99.90;;;;;;4881469;29;20085;-76
2022/10/29 01:45:28;;;;;;;0.63;0.60;;;12.40;99.90;;;;;;4897603;29;20060;-76
2022/10/29 01:47:57;;;;;;;0.55;0.50;;;12.50;99.90;;;;;;4894474;29;20135;-75
2022/10/29 01:50:24;;;;;;;1.33;0.60;;;12.60;99.90;;;;;;4895946;29;20064;-75
2022/10/29 01:52:52;;;;;;;1.00;0.75;;;12.60;99.90;;;;;;4897008;29;20044;-75
2022/10/29 01:55:20;;;;;;;0.57;0.47;;;11.90;99.90;;;;;;4881954;29;20487;-75
2022/10/29 01:57:46;;;;;;;1.10;0.80;;;12.10;99.90;;;;;;4896047;29;20076;-75
2022/10/29 02:00:16;;;;;;;1.05;0.80;;;11.90;99.90;;;;;;4896439;29;20091;-75
2022/10/29 02:02:53;;;;;;;0.85;0.70;;;11.90;99.90;;;;;;4895377;29;20084;-75
2022/10/29 02:05:27;;;;;;;0.70;0.50;;;12.70;99.90;;;;;;4897006;29;20489;-76
2022/10/29 02:08:22;;;;;;;0.98;0.70;;;11.90;99.90;;;;;;4894630;29;20489;-75
2022/10/29 02:11:08;;;;;;;0.70;0.60;;;12.60;99.90;;;;;;4896904;29;20056;-75
2022/10/29 02:13:40;;;;;;;0.63;0.63;;;12.20;99.90;;;;;;4896927;29;20076;-75
2022/10/29 02:16:08;;;;;;;0.40;0.40;;;12.00;99.90;;;;;;4873458;29;20041;-75
2022/10/29 02:18:45;;;;;;;0.55;0.55;;;12.70;99.90;;;;;;4890747;29;20095;-75
2022/10/29 02:21:14;;;;;;;0.40;0.40;;;12.20;99.90;;;;;;4862639;29;20076;-75
2022/10/29 02:23:40;;;;;;;0.35;0.35;;;11.90;99.90;;;;;;4892718;29;20103;-75
2022/10/29 02:26:06;;;;;;;0.30;0.30;;;11.90;99.90;;;;;;4900287;29;20488;-75
2022/10/29 02:28:32;;;;;;;0.35;0.35;;;11.90;99.90;;;;;;4899068;29;20052;-75
2022/10/29 02:30:57;;;;;;;0.30;0.30;;;12.10;99.90;;;;;;4896598;29;20095;-75
2022/10/29 02:33:23;;;;;;;0.30;0.30;;;12.00;99.90;;;;;;4899542;29;20040;-75
2022/10/29 02:35:49;;;;;;;0.35;0.35;;;12.70;99.90;;;;;;4883600;29;20048;-75
2022/10/29 02:38:14;;;;;;;0.40;0.38;;;12.10;99.90;;;;;;4896215;29;20040;-75
2022/10/29 02:40:40;;;;;;;0.25;0.20;;;12.10;99.90;;;;;;4871270;29;20135;-75
2022/10/29 02:43:06;;;;;;;0.40;0.40;;;12.80;99.90;;;;;;4899096;29;20495;-75
2022/10/29 02:45:31;;;;;;;0.40;0.40;;;12.20;99.90;;;;;;4898217;29;20547;-75
2022/10/29 02:47:57;;;;;;;0.40;0.40;;;12.70;99.90;;;;;;4898180;29;20500;-75
2022/10/29 02:50:22;;;;;;;0.20;0.20;;;12.80;99.90;;;;;;4899455;29;20036;-75
2022/10/29 02:52:48;;;;;;;0.40;0.40;;;12.00;99.90;;;;;;4899013;29;20473;-75
2022/10/29 02:55:14;;;;;;;0.30;0.30;;;12.00;99.90;;;;;;4899657;29;20050;-76
2022/10/29 02:57:43;;;;;;;0.30;0.30;;;12.70;99.90;;;;;;4881321;29;20491;-76
2022/10/29 03:00:10;;;;;;;0.40;0.40;;;12.40;99.90;;;;;;4898323;29;20044;-76
2022/10/29 03:02:35;;;;;;;0.30;0.30;;;12.10;99.90;;;;;;4901239;29;20073;-75
2022/10/29 03:05:01;;;;;;;0.32;0.32;;;12.90;99.90;;;;;;4899367;29;20499;-76
2022/10/29 03:07:27;;;;;;;0.40;0.40;;;12.60;99.90;;;;;;4912043;29;20059;-76
2022/10/29 03:09:53;;;;;;;0.30;0.30;;;12.90;99.90;;;;;;4899401;29;20551;-75
2022/10/29 03:12:18;;;;;;;0.40;0.40;;;12.60;99.90;;;;;;4882339;29;20519;-76
2022/10/29 03:14:44;;;;;;;0.30;0.30;;;12.10;99.90;;;;;;4899723;29;20040;-76
2022/10/29 03:17:10;;;;;;;0.25;0.25;;;12.90;99.90;;;;;;4896862;29;20036;-76
2022/10/29 03:19:35;;;;;;;0.20;0.20;;;12.90;99.90;;;;;;4900905;29;20040;-75
2022/10/29 03:22:01;;;;;;;0.20;0.20;;;12.40;99.90;;;;;;4912105;29;20044;-75
2022/10/29 03:24:27;;;;;;;0.30;0.30;;;12.80;99.90;;;;;;4907757;29;20064;-74
2022/10/29 03:26:52;;;;;;;0.38;0.30;;;11.90;99.90;;;;;;4880881;29;20095;-75
2022/10/29 03:29:18;;;;;;;0.30;0.30;;;12.80;99.90;;;;;;4878969;29;20048;-75
2022/10/29 03:31:44;;;;;;;0.35;0.30;;;11.90;99.90;;;;;;4880093;29;20082;-75
2022/10/29 03:34:09;;;;;;;0.32;0.32;;;12.40;99.90;;;;;;4895926;29;20045;-75
2022/10/29 03:36:35;;;;;;;0.30;0.30;;;12.10;99.90;;;;;;4893778;29;20044;-75
2022/10/29 03:39:01;;;;;;;0.30;0.30;;;12.20;99.90;;;;;;4861417;29;20042;-75
2022/10/29 03:41:26;;;;;;;0.40;0.38;;;12.70;99.90;;;;;;4896052;29;20064;-75
2022/10/29 03:43:52;;;;;;;0.40;0.40;;;12.10;99.90;;;;;;4893716;29;20552;-75
2022/10/29 03:46:17;;;;;;;0.22;0.22;;;12.70;99.90;;;;;;4894147;29;20044;-75
2022/10/29 03:48:43;;;;;;;0.30;0.30;;;12.60;99.90;;;;;;4894581;29;20045;-75
2022/10/29 03:51:09;;;;;;;0.30;0.30;;;12.60;99.90;;;;;;4893783;29;20049;-75
2022/10/29 03:53:36;;;;;;;0.40;0.40;;;12.40;99.90;;;;;;4879027;29;20046;-75
2022/10/29 03:56:02;;;;;;;0.47;0.40;;;11.70;99.90;;;;;;4886070;29;20406;-75
2022/10/29 03:58:28;;;;;;;0.32;0.32;;;12.50;99.90;;;;;;4892990;29;20107;-75
2022/10/29 04:00:59;;;;;;;0.28;0.28;;;12.60;99.90;;;;;;4894822;29;20083;-75
2022/10/29 04:03:27;;;;;;;0.30;0.30;;;11.90;99.90;;;;;;4894068;29;20052;-75
2022/10/29 04:05:52;;;;;;;0.73;0.40;;;12.60;99.90;;;;;;4894637;29;20412;-75
2022/10/29 04:08:18;;;;;;;0.50;0.50;;;12.60;99.90;;;;;;4877799;29;20047;-75
2022/10/29 04:10:49;;;;;;;0.28;0.28;;;12.00;99.90;;;;;;4895207;29;20060;-75
2022/10/29 04:13:15;;;;;;;0.43;0.43;;;12.70;99.90;;;;;;4895218;29;20369;-74
2022/10/29 04:15:41;;;;;;;;;;;12.70;99.90;;;;;;4896145;29;20076;-75
2022/10/29 04:18:07;;;;;;;0.40;0.40;;;12.20;99.90;;;;;;4877930;29;19984;-74
2022/10/29 04:20:33;;;;;;;0.32;0.32;;;11.60;99.90;;;;;;4879590;29;20081;-74
2022/10/29 04:22:59;;;;;;;;;;;11.90;99.90;;;;;;4893577;29;20067;-74
2022/10/29 04:25:24;;;;;;;0.15;0.15;;;12.70;99.90;;;;;;4877363;29;19931;-75
2022/10/29 04:27:53;;;;;;;0.22;0.22;;;11.90;99.90;;;;;;4845679;29;20073;-74
2022/10/29 04:30:19;;;;;;;0.30;0.28;;;11.60;99.90;;;;;;4877454;29;20127;-75
2022/10/29 04:32:44;;;;;;;0.43;0.40;;;12.30;99.90;;;;;;4842427;29;20123;-75
2022/10/29 04:35:10;;;;;;;0.30;0.30;;;12.80;99.90;;;;;;4875897;29;20502;-75
2022/10/29 04:37:36;;;;;;;0.57;0.40;;;11.80;99.90;;;;;;4877921;29;20047;-75
2022/10/29 04:40:02;;;;;;;0.50;0.50;;;12.60;99.90;;;;;;4893233;29;20049;-75
2022/10/29 04:42:28;;;;;;;0.50;0.50;;;11.90;99.90;;;;;;4880916;29;20040;-75
2022/10/29 04:44:53;;;;;;;0.60;0.50;;;12.80;99.90;;;;;;4913370;29;20048;-75
2022/10/29 04:47:19;;;;;;;1.08;0.70;;;12.20;99.90;;;;;;4893436;29;20542;-75
2022/10/29 04:49:44;;;;;;;0.43;0.40;;;12.80;99.90;;;;;;4910150;29;20464;-75
2022/10/29 04:52:10;;;;;;;0.50;0.50;;;12.80;99.90;;;;;;4892123;29;20521;-74
2022/10/29 04:54:36;;;;;;;0.57;0.50;;;12.20;99.90;;;;;;4894297;29;20041;-75
2022/10/29 04:57:01;;;;;;;0.60;0.60;;;11.70;99.90;;;;;;4862438;29;20164;-75
2022/10/29 04:59:27;;;;;;;1.10;0.90;;;11.70;99.90;;;;;;4889303;29;20548;-74
2022/10/29 05:01:53;;;;;;;0.68;0.57;;;11.60;99.90;;;;;;4907217;29;20066;-75
2022/10/29 05:04:18;;;;;;;0.98;0.70;;;12.40;99.90;;;;;;4891277;29;20044;-73
2022/10/29 05:06:44;;;;;;;0.65;0.57;;;11.80;99.90;;;;;;4890363;29;20088;-72
2022/10/29 05:09:10;;;;;;;0.63;0.60;;;12.80;99.90;;;;;;4895619;29;20131;-80
2022/10/29 05:11:35;;;;;;;0.98;0.70;;;12.90;99.90;;;;;;4895160;29;20416;-82
2022/10/29 05:14:01;;;;;;;0.60;0.60;;;11.70;99.90;;;;;;4893704;29;20072;-81
2022/10/29 05:16:27;;;;;;;0.90;0.70;;;11.60;99.90;;;;;;4895086;29;20036;-81
2022/10/29 05:18:52;;;;;;;0.30;0.30;;;12.90;99.90;;;;;;4893342;29;20492;-81
2022/10/29 05:21:18;;;;;;;0.50;0.50;;;11.60;99.90;;;;;;4897735;29;20048;-81
2022/10/29 05:23:44;;;;;;;0.60;0.60;;;11.70;99.90;;;;;;4903056;29;20099;-81
2022/10/29 05:26:09;;;;;;;0.73;0.70;;;11.70;99.90;;;;;;4907939;29;20147;-81
2022/10/29 05:28:35;;;;;;;0.80;0.60;;;11.70;99.90;;;;;;4919325;29;20036;-81
2022/10/29 05:31:01;;;;;;;1.00;0.70;;;12.90;99.90;;;;;;4900256;29;20480;-80
2022/10/29 05:33:27;;;;;;;0.50;0.50;;;12.70;99.90;;;;;;4886568;29;20459;-81
2022/10/29 05:35:52;;;;;;;0.40;0.40;;;12.20;99.90;;;;;;4904397;29;20044;-81
2022/10/29 05:38:19;;;;;;;1.35;0.75;;;12.80;99.90;;;;;;4921165;29;20044;-81
2022/10/29 05:40:44;;;;;;;;;;;13.10;99.90;;;;;;4903306;29;20048;-81
2022/10/29 05:43:11;;;;;;;1.02;0.70;;;12.10;99.90;;;;;;4915144;29;19978;-81
2022/10/29 05:45:37;;;;;;;0.65;0.60;;;12.30;99.90;;;;;;4887209;29;20114;-81
2022/10/29 05:48:03;;;;;;;0.90;0.73;;;13.00;99.90;;;;;;4902918;29;20482;-80
2022/10/29 05:50:29;;;;;;;;;;;11.90;99.90;;;;;;4888061;29;20100;-81
2022/10/29 05:53:05;;;;;;;0.93;0.80;;;13.00;99.90;;;;;;4886941;29;19919;-74
2022/10/29 05:55:33;;;;;;;1.00;0.80;;;11.80;99.90;;;;;;4895782;29;20051;-73
2022/10/29 05:58:00;;;;;;;0.95;0.60;;;12.70;99.90;;;;;;4899859;29;20040;-73
2022/10/29 06:00:29;;;;;;;0.73;0.60;;;12.80;99.90;;;;;;4896111;29;20044;-74
2022/10/29 06:02:55;;;;;;;0.88;0.75;;;12.70;99.90;;;;;;4895124;29;20131;-72
2022/10/29 06:05:21;;;;;;;1.15;0.90;;;12.80;99.90;;;;;;4897361;29;20079;-73
2022/10/29 06:07:56;;;;;;;0.98;0.80;;;12.00;99.90;;;;;;4900312;29;20139;-73
2022/10/29 06:10:22;;;;;;;0.80;0.80;;;12.10;99.90;;;;;;4900954;29;20040;-73
2022/10/29 06:12:48;;;;;;;1.23;0.90;;;11.60;99.90;;;;;;4902287;29;20127;-74
2022/10/29 06:15:15;;;;;;;0.65;0.63;;;11.60;99.90;;;;;;4900329;29;20056;-74
2022/10/29 06:17:41;;;;;;;0.85;0.70;;;12.30;99.90;;;;;;4915103;29;20518;-74
2022/10/29 06:20:09;;;;;;;1.20;0.90;;;12.40;99.90;;;;;;4917245;29;20515;-75
2022/10/29 06:22:35;;;;;;;0.60;0.60;;;11.70;99.90;;;;;;4900249;29;20052;-75
2022/10/29 06:25:01;;;;;;;0.50;0.50;;;11.60;99.90;;;;;;4895549;29;20064;-75
2022/10/29 06:27:26;;;;;;;0.65;0.50;;;11.70;99.90;;;;;;4896701;29;20071;-75
2022/10/29 06:29:52;;;;;;;0.50;0.50;;;11.80;99.90;;;;;;4896795;29;20044;-73
2022/10/29 06:32:18;;;;;;;0.40;0.30;;;11.70;99.90;;;;;;4895876;29;20571;-74
2022/10/29 06:34:43;;;;;;;0.40;0.40;;;11.80;99.90;;;;;;4895119;29;20136;-74
2022/10/29 06:37:09;;;;;;;0.85;0.70;;;11.80;99.90;;;;;;4896628;29;20408;-74
2022/10/29 06:39:35;;;;;;;0.40;0.40;;;12.30;99.90;;;;;;4880681;29;20064;-71
2022/10/29 06:42:01;;;;;;;0.45;0.40;;;13.10;99.90;;;;;;4895358;29;20147;-73
2022/10/29 06:44:27;;;;;;;0.65;0.50;;;12.90;99.90;;;;;;4896241;29;20049;-73
2022/10/29 06:46:52;;;;;;;0.63;0.50;;;13.10;99.90;;;;;;4893347;29;20053;-74
2022/10/29 06:49:19;;;;;;;0.95;0.57;;;13.20;99.90;;;;;;4897867;29;20048;-73
2022/10/29 06:51:46;;;;;;;0.60;0.60;;;12.50;99.90;;;;;;4883693;29;20036;-75
2022/10/29 06:54:11;;;;;;;0.70;0.50;;;13.00;99.90;;;;;;4908311;29;20052;-73
2022/10/29 06:56:37;;;;;;;0.80;0.73;;;13.30;99.90;;;;;;4894565;29;20049;-73
2022/10/29 06:59:03;;;;;;;0.68;0.60;;;12.10;99.90;;;;;;4889594;29;20420;-73
2022/10/29 07:01:31;;;;;;;0.80;0.60;;;12.50;99.90;;;;;;4877717;29;20050;-73
2022/10/29 07:04:00;;;;;;;1.33;0.85;;;12.10;99.90;;;;;;4896376;29;20412;-73
2022/10/29 07:06:27;;;;;;;0.60;0.57;;;13.10;99.90;;;;;;4908271;29;20044;-73
2022/10/29 07:08:52;;;;;;;1.52;1.08;;;12.00;99.90;;;;;;4864520;29;20051;-73
2022/10/29 07:11:18;;;;;;;1.40;1.00;;;12.50;99.90;;;;;;4892952;29;20044;-73
2022/10/29 07:13:44;;;;;;;1.10;0.80;;;13.50;99.90;;;;;;4879161;29;20048;-73
2022/10/29 07:16:10;;;;;;;0.90;0.73;;;13.50;99.90;;;;;;4892670;29;20040;-72
2022/10/29 07:18:35;;;;;;;0.88;0.60;;;12.80;99.90;;;;;;4879989;29;20063;-73
2022/10/29 07:21:02;;;;;;;1.20;0.80;;;13.50;99.90;;;;;;4893269;29;20119;-73
2022/10/29 07:23:28;;;;;;;1.23;0.90;;;13.10;99.90;;;;;;4894466;29;20053;-73
2022/10/29 07:25:54;;;;;;;1.50;1.00;;;12.50;99.90;;;;;;4892350;29;20048;-73
2022/10/29 07:28:21;;;;;;;2.60;1.77;;;13.40;99.90;;;;;;4889891;29;20127;-73
2022/10/29 07:30:49;;;;;;;2.22;1.60;;;13.00;99.90;;;;;;4890343;29;20045;-73
2022/10/29 07:33:15;;;;;;;2.10;1.23;;;13.70;99.90;;;;;;4874286;29;20048;-73
2022/10/29 07:35:42;;;;;;;1.60;1.10;;;12.30;99.90;;;;;;4892887;29;20045;-73
2022/10/29 07:38:10;;;;;;;1.40;1.00;;;13.60;99.90;;;;;;4908972;29;20106;-73
2022/10/29 07:40:36;;;;;;;1.75;1.08;;;13.70;99.90;;;;;;4894305;29;20558;-73
2022/10/29 07:43:01;;;;;;;;;;;13.80;99.90;;;;;;4888539;29;20374;-73
2022/10/29 07:45:27;;;;;;;1.55;1.00;;;13.50;99.90;;;;;;4893407;29;19927;-74
2022/10/29 07:48:00;;;;;;;2.10;1.20;;;12.70;99.90;;;;;;4891756;29;20048;-74
2022/10/29 07:50:28;;;;;;;3.13;1.95;;;13.00;99.90;;;;;;4890531;29;20064;-73
2022/10/29 07:52:54;;;;;;;1.92;1.30;;;12.70;99.90;;;;;;4892567;29;20103;-72
2022/10/29 07:55:20;;;;;;;3.00;1.50;;;14.10;99.90;;;;;;4893195;29;20040;-73
2022/10/29 07:57:45;;;;;;;2.08;1.20;;;13.10;99.90;;;;;;4878884;29;20437;-73
2022/10/29 08:00:13;;;;;;;3.20;1.83;;;14.10;99.90;;;;;;4892150;29;20077;-81
2022/10/29 08:02:41;;;;;;;2.00;1.40;;;12.90;99.90;;;;;;4892196;29;20130;-81
2022/10/29 08:05:07;;;;;;;2.63;1.30;;;12.80;99.90;;;;;;4909784;29;20051;-81
2022/10/29 08:07:33;;;;;;;2.90;1.70;;;12.80;99.90;;;;;;4895159;29;20048;-82
2022/10/29 08:09:58;;;;;;;2.65;1.35;;;13.00;99.90;;;;;;4896862;29;20372;-83
2022/10/29 08:12:24;;;;;;;3.28;1.67;;;13.40;99.90;;;;;;4895074;29;20127;-82
2022/10/29 08:14:50;;;;;;;4.18;2.35;;;12.90;99.90;;;;;;4893154;29;20037;-81
2022/10/29 08:17:15;;;;;;;3.72;1.80;;;13.00;99.90;;;;;;4890336;29;20128;-82
2022/10/29 08:19:41;;;;;;;5.38;2.45;;;13.00;99.90;;;;;;4877882;29;20381;-81
2022/10/29 08:22:07;;;;;;;5.97;3.03;;;13.30;99.90;;;;;;4904572;29;20076;-82
2022/10/29 08:24:32;;;;;;;3.55;2.25;;;14.30;99.90;;;;;;4895758;29;20068;-82
2022/10/29 08:26:58;;;;;;;3.38;1.85;;;13.50;99.90;;;;;;4877603;29;20715;-82
2022/10/29 08:29:24;;;;;;;2.25;1.52;;;13.20;99.90;;;;;;4893946;29;20064;-81
2022/10/29 08:31:49;;;;;;;3.60;2.00;;;14.50;99.90;;;;;;4880679;29;20036;-82
2022/10/29 08:34:15;;;;;;;3.00;2.13;;;14.30;99.90;;;;;;4896632;29;20120;-80
2022/10/29 08:36:41;;;;;;;3.50;2.30;;;13.60;99.90;;;;;;4892090;29;20041;-82
2022/10/29 08:39:07;;;;;;;4.20;2.60;;;13.30;99.90;;;;;;4878688;29;20077;-81
2022/10/29 08:42:09;;;;;;;5.88;2.85;;;13.40;99.90;;;;;;4893029;29;20111;-81
2022/10/29 08:45:06;;;;;;;5.65;2.95;;;14.50;99.90;;;;;;4860026;29;20056;-82
2022/10/29 08:47:53;;;;;;;4.22;2.70;;;13.40;99.90;;;;;;4892393;29;20089;-82
2022/10/29 08:50:40;;;;;;;5.32;2.90;;;14.50;99.90;;;;;;4879035;29;20056;-82
2022/10/29 08:53:16;;;;;;;6.17;3.67;;;14.50;99.90;;;;;;4907602;29;20082;-81
2022/10/29 08:55:43;;;;;;;;;;;13.50;99.90;;;;;;4877838;29;20300;-80
2022/10/29 08:58:29;;;;;;;6.88;3.75;;;13.50;99.90;;;;;;4903045;29;19974;-82
2022/10/29 09:00:56;;;;;;;5.97;3.80;;;14.80;99.90;;;;;;4870663;29;20053;-81
2022/10/29 09:03:25;;;;;;;7.13;4.40;;;13.80;99.90;;;;;;4895078;29;20047;-81
2022/10/29 09:06:12;;;;;;;7.88;4.40;;;13.50;99.90;;;;;;4902842;29;20581;-80
2022/10/29 09:08:53;;;;;;;5.93;3.75;;;13.50;99.90;;;;;;4901655;29;20049;-80
2022/10/29 09:11:23;;;;;;;5.75;4.00;;;14.50;99.90;;;;;;4913918;29;20029;-80
2022/10/29 09:14:27;;;;;;;5.55;3.83;;;13.50;99.90;;;;;;4891343;29;20433;-81
2022/10/29 09:17:16;;;;;;;5.65;4.15;;;13.50;99.90;;;;;;4892973;29;20611;-82
2022/10/29 09:20:17;;;;;;;8.23;4.63;;;14.00;99.90;;;;;;4912137;29;20077;-79
2022/10/29 09:22:49;;;;;;;4.97;3.20;;;13.70;99.90;;;;;;4813641;29;20050;-80
2022/10/29 09:25:29;;;;;;;6.13;3.60;;;13.90;99.90;;;;;;4885572;29;20048;-79
2022/10/29 09:28:29;;;;;;;4.13;3.08;;;14.50;99.90;;;;;;4898273;29;20048;-79
2022/10/29 09:31:01;;;;;;;5.05;3.00;;;13.90;99.90;;;;;;4894639;29;20080;-79
2022/10/29 09:33:27;;;;;;;4.28;2.90;;;14.30;99.90;;;;;;4896393;29;20048;-80
2022/10/29 09:35:56;;;;;;;4.15;2.90;;;14.80;99.90;;;;;;4899880;29;20063;-80
2022/10/29 09:38:46;;;;;;;3.60;2.53;;;15.10;99.90;;;;;;4896173;29;20552;-80
2022/10/29 09:41:12;;;;;;;4.38;3.13;;;14.00;99.90;;;;;;4862878;29;20052;-81
2022/10/29 09:43:49;;;;;;;5.20;3.58;;;14.20;99.90;;;;;;4895686;29;20048;-80
2022/10/29 09:46:30;;;;;;;5.18;3.35;;;14.10;99.90;;;;;;4900431;29;20044;-79
2022/10/29 09:49:06;;;;;;;5.07;3.70;;;14.50;99.90;;;;;;4893471;29;20048;-80
2022/10/29 09:52:04;;;;;;;4.72;3.17;;;14.40;99.90;;;;;;4916909;29;20096;-79
2022/10/29 09:54:31;;;;;;;4.75;3.28;;;14.70;99.90;;;;;;4898080;29;20088;-79
2022/10/29 09:56:59;;;;;;;6.00;3.58;;;15.30;99.90;;;;;;4885011;29;20052;-81
2022/10/29 09:59:40;;;;;;;4.90;3.47;;;14.70;99.90;;;;;;4882519;29;20766;-81
2022/10/29 10:02:28;;;;;;;4.55;3.40;;;14.20;99.90;;;;;;4893977;29;20040;-80
2022/10/29 10:04:59;;;;;;;5.15;3.30;;;14.20;99.90;;;;;;4878143;29;20041;-81
2022/10/29 10:07:26;;;;;;;3.92;2.63;;;14.40;99.90;;;;;;4890342;29;20059;-72
2022/10/29 10:09:55;;;;;;;5.85;3.88;;;15.40;99.90;;;;;;4891622;29;20052;-72
2022/10/29 10:12:48;;;;;;;3.72;2.90;;;15.40;99.90;;;;;;4887639;29;20076;-72
2022/10/29 10:15:29;;;;;;;3.40;2.53;;;15.60;99.90;;;;;;4890660;29;20057;-72
2022/10/29 10:18:04;;;;;;;4.88;3.15;;;15.60;99.90;;;;;;4890393;29;20445;-72
2022/10/29 10:20:45;;;;;;;2.90;2.50;;;15.40;99.90;;;;;;4894741;29;20044;-72
2022/10/29 10:23:29;;;;;;;3.75;2.78;;;14.80;99.90;;;;;;4867227;29;20044;-72
2022/10/29 10:25:57;;;;;;;6.65;3.33;;;15.70;99.90;;;;;;4894553;29;20056;-72
2022/10/29 10:28:28;;;;;;;3.80;2.78;;;15.20;99.90;;;;;;4893299;29;20084;-72
2022/10/29 10:31:03;;;;;;;3.72;2.55;;;14.90;99.90;;;;;;4885223;29;20055;-72
2022/10/29 10:33:30;;;;;;;3.47;2.50;;;14.90;99.90;;;;;;4894114;29;20133;-71
2022/10/29 10:36:05;;;;;;;3.25;2.17;;;15.90;99.90;;;;;;4904205;29;20571;-73
2022/10/29 10:38:43;;;;;;;3.70;2.40;;;15.30;99.90;;;;;;4913947;29;20044;-72
2022/10/29 10:41:11;;;;;;;3.95;2.22;;;15.30;99.90;;;;;;4895172;29;20055;-72
2022/10/29 10:43:41;;;;;;;4.55;2.55;;;15.40;99.90;;;;;;4886611;29;20100;-72
2022/10/29 10:46:22;;;;;;;2.30;1.70;;;16.20;99.90;;;;;;4888895;29;20123;-73
2022/10/29 10:49:05;;;;;;;4.38;2.33;;;16.10;99.90;;;;;;4905522;29;20051;-72
2022/10/29 10:51:35;;;;;;;2.72;1.45;;;16.40;99.90;;;;;;4904693;29;20051;-73
2022/10/29 10:54:09;;;;;;;3.10;2.10;;;16.20;99.90;;;;;;4900868;29;20132;-72
2022/10/29 10:56:58;;;;;;;3.63;2.00;;;15.90;99.90;;;;;;4895611;29;20060;-73
2022/10/29 10:59:30;;;;;;;3.55;2.30;;;15.80;99.90;;;;;;4903205;29;20067;-73
2022/10/29 11:01:59;;;;;;;3.10;1.90;;;16.00;99.90;;;;;;4917481;29;20056;-73
2022/10/29 11:04:33;;;;;;;3.03;1.95;;;16.50;99.90;;;;;;4891783;29;20076;-70
2022/10/29 11:07:04;;;;;;;2.25;1.67;;;16.80;99.90;;;;;;4904156;29;20057;-74
2022/10/29 11:09:42;;;;;;;2.13;1.40;;;16.80;99.90;;;;;;4893765;29;20056;-71
2022/10/29 11:12:38;;;;;;;2.88;1.60;;;16.80;99.90;;;;;;4893047;29;20048;-71
2022/10/29 11:15:39;;;;;;;4.70;2.33;;;17.00;99.90;;;;;;4873618;29;20056;-73
2022/10/29 11:18:20;;;;;;;3.83;2.75;;;16.50;99.90;;;;;;4856557;29;20128;-72
2022/10/29 11:21:13;;;;;;;3.22;1.95;;;16.60;99.90;;;;;;4894567;29;20048;-74
2022/10/29 11:24:00;;;;;;;2.95;1.95;;;17.30;99.90;;;;;;4878718;29;20047;-75
2022/10/29 11:26:40;;;;;;;3.70;2.42;;;17.40;99.90;;;;;;4895442;29;20044;-75
2022/10/29 11:29:26;;;;;;;3.45;1.77;;;17.40;99.90;;;;;;4899198;29;20056;-76
2022/10/29 11:32:08;;;;;;;4.18;2.72;;;17.50;99.90;;;;;;4898495;29;20143;-74
2022/10/29 11:34:43;;;;;;;3.50;2.60;;;17.10;99.90;;;;;;4893272;29;20047;-72
2022/10/29 11:37:20;;;;;;;4.43;2.65;;;17.20;99.90;;;;;;4880655;29;20036;-73
2022/10/29 11:39:52;;;;;;;3.17;1.80;;;17.40;99.90;;;;;;4910061;29;20072;-72
2022/10/29 11:42:17;;;;;;;3.80;2.03;;;17.40;99.90;;;;;;4903541;29;20043;-72
2022/10/29 11:44:43;;;;;;;;;;;17.60;99.90;;;;;;4880784;29;20051;-73
2022/10/29 11:47:28;;;;;;;2.42;1.63;;;17.70;99.90;;;;;;4912280;29;19950;-73
2022/10/29 11:50:15;;;;;;;5.18;2.03;;;17.70;99.90;;;;;;4894093;29;20035;-73
2022/10/29 11:52:45;;;;;;;3.70;2.10;;;17.80;99.90;;;;;;4895653;29;20044;-71
2022/10/29 11:55:52;;;;;;;3.45;2.13;;;17.90;99.90;;;;;;4894904;29;20047;-73
2022/10/29 11:58:35;;;;;;;3.60;2.40;;;18.00;99.90;;;;;;4894175;29;20094;-73
2022/10/29 12:01:27;;;;;;;5.32;2.83;;;18.30;99.90;;;;;;4895421;29;20055;-72
2022/10/29 12:03:56;;;;;;;6.00;2.80;;;18.20;99.90;;;;;;4889534;29;20055;-73
2022/10/29 12:06:21;;;;;;;4.53;2.30;;;18.20;99.90;;;;;;4900624;29;20048;-73
2022/10/29 12:08:47;;;;;;;;;;;18.10;99.90;;;;;;4902995;29;20043;-73
2022/10/29 12:11:44;;;;;;;3.88;1.90;;;17.90;99.90;;;;;;4899010;29;20027;-73
2022/10/29 12:14:32;;;;;;;4.80;1.92;;;18.10;99.90;;;;;;4882339;29;20044;-73
2022/10/29 12:17:08;;;;;;;3.22;1.60;;;18.00;99.90;;;;;;4893972;29;20048;-76
2022/10/29 12:19:45;;;;;;;2.60;1.50;;;17.80;99.90;;;;;;4891378;29;20096;-73
2022/10/29 12:22:31;;;;;;;2.47;1.60;;;18.00;99.90;;;;;;4895172;29;20141;-73
2022/10/29 12:25:21;;;;;;;4.00;2.10;;;17.90;99.90;;;;;;4879456;29;20194;-73
2022/10/29 12:28:08;;;;;;;4.22;1.70;;;18.60;99.90;;;;;;4893970;29;20056;-73
2022/10/29 12:30:38;;;;;;;;;;;19.10;99.90;;;;;;4895266;29;20070;-73
2022/10/29 12:33:22;;;;;;;4.13;2.17;;;19.00;99.90;;;;;;4893603;29;19966;-74
2022/10/29 12:36:21;;;;;;;2.95;1.92;;;19.10;99.90;;;;;;4897809;29;20044;-73
2022/10/29 12:38:52;;;;;;;1.90;1.50;;;18.90;99.90;;;;;;4889225;29;20052;-73
2022/10/29 12:41:38;;;;;;;2.50;1.58;;;18.80;99.90;;;;;;4896285;29;20056;-74
2022/10/29 12:44:23;;;;;;;7.53;2.92;;;19.00;99.90;;;;;;4894971;29;20040;-75
2022/10/29 12:47:02;;;;;;;4.65;2.17;;;19.10;99.90;;;;;;4879395;29;20044;-76
2022/10/29 12:49:56;;;;;;;5.13;2.40;;;19.10;99.90;;;;;;4910081;29;20040;-74
2022/10/29 12:52:56;;;;;;;3.35;1.90;;;19.20;99.90;;;;;;4892968;29;20052;-75
2022/10/29 12:55:22;;;;;;;3.92;2.38;;;19.50;99.90;;;;;;4888317;29;20127;-75
2022/10/29 12:57:48;;;;;;;4.03;2.10;;;19.70;99.90;;;;;;4910233;29;20071;-75
2022/10/29 13:00:22;;;;;;;;;;;20.00;99.90;;;;;;4914128;29;20086;-74
2022/10/29 13:02:52;;;;;;;6.43;2.97;;;20.00;99.90;;;;;;4879823;29;19923;-74
2022/10/29 13:05:36;;;;;;;4.90;2.80;;;19.90;99.90;;;;;;4897026;29;20055;-74
2022/10/29 13:08:01;;;;;;;4.18;2.38;;;19.70;99.90;;;;;;4894911;29;20060;-74
2022/10/29 13:10:30;;;;;;;;;;;19.50;99.90;;;;;;4911169;29;20479;-74
2022/10/29 13:13:16;;;;;;;6.78;2.47;;;19.40;99.90;;;;;;4907563;29;20006;-74